sensor_id;sensor_type;location;lat;lon;timestamp;temperature;humidity
35258;DHT22;21385;50.878;8.050;2022-09-09T00:06:30;14.80;99.90
35258;DHT22;21385;50.878;8.050;2022-09-09T00:09:02;14.80;99.90
35258;DHT22;21385;50.878;8.050;2022-09-09T00:11:39;14.80;99.90
35258;DHT22;21385;50.878;8.050;2022-09-09T00:14:13;14.80;99.90
35258;DHT22;21385;50.878;8.050;2022-09-09T00:16:42;14.70;99.90
35258;DHT22;21385;50.878;8.050;2022-09-09T00:19:19;14.70;99.90
35258;DHT22;21385;50.878;8.050;2022-09-09T00:24:44;14.70;99.90
35258;DHT22;21385;50.878;8.050;2022-09-09T00:27:50;14.70;99.90
35258;DHT22;21385;50.878;8.050;2022-09-09T00:30:24;14.70;99.90
35258;DHT22;21385;50.878;8.050;2022-09-09T00:32:58;14.60;99.90
35258;DHT22;21385;50.878;8.050;2022-09-09T00:35:34;14.60;99.90
35258;DHT22;21385;50.878;8.050;2022-09-09T00:40:48;14.60;99.90
35258;DHT22;21385;50.878;8.050;2022-09-09T00:43:28;14.70;99.90
35258;DHT22;21385;50.878;8.050;2022-09-09T00:49:05;14.60;99.90
35258;DHT22;21385;50.878;8.050;2022-09-09T00:57:35;14.60;99.90
35258;DHT22;21385;50.878;8.050;2022-09-09T01:02:39;14.60;99.90
35258;DHT22;21385;50.878;8.050;2022-09-09T01:05:16;14.60;99.90
35258;DHT22;21385;50.878;8.050;2022-09-09T01:07:47;14.60;99.90
35258;DHT22;21385;50.878;8.050;2022-09-09T01:13:22;14.60;99.90
35258;DHT22;21385;50.878;8.050;2022-09-09T01:15:49;14.60;99.90
35258;DHT22;21385;50.878;8.050;2022-09-09T01:18:17;14.60;99.90
35258;DHT22;21385;50.878;8.050;2022-09-09T01:23:53;14.50;99.90
35258;DHT22;21385;50.878;8.050;2022-09-09T01:26:37;14.50;99.90
35258;DHT22;21385;50.878;8.050;2022-09-09T01:29:08;14.50;99.90
35258;DHT22;21385;50.878;8.050;2022-09-09T01:34:18;14.50;99.90
35258;DHT22;21385;50.878;8.050;2022-09-09T01:39:26;14.40;99.90
35258;DHT22;21385;50.878;8.050;2022-09-09T01:41:53;14.30;99.90
35258;DHT22;21385;50.878;8.050;2022-09-09T01:44:21;14.30;99.90
35258;DHT22;21385;50.878;8.050;2022-09-09T01:46:47;14.20;99.90
35258;DHT22;21385;50.878;8.050;2022-09-09T01:49:12;14.20;99.90
35258;DHT22;21385;50.878;8.050;2022-09-09T01:51:39;14.20;99.90
35258;DHT22;21385;50.878;8.050;2022-09-09T01:54:06;14.20;99.90
35258;DHT22;21385;50.878;8.050;2022-09-09T01:59:38;14.20;99.90
35258;DHT22;21385;50.878;8.050;2022-09-09T02:04:47;14.20;99.90
35258;DHT22;21385;50.878;8.050;2022-09-09T02:07:55;14.20;99.90
35258;DHT22;21385;50.878;8.050;2022-09-09T02:10:38;14.20;99.90
35258;DHT22;21385;50.878;8.050;2022-09-09T02:13:11;14.10;99.90
35258;DHT22;21385;50.878;8.050;2022-09-09T02:15:46;14.10;99.90
35258;DHT22;21385;50.878;8.050;2022-09-09T02:18:15;14.10;99.90
35258;DHT22;21385;50.878;8.050;2022-09-09T02:20:43;14.10;99.90
35258;DHT22;21385;50.878;8.050;2022-09-09T02:23:11;14.10;99.90
35258;DHT22;21385;50.878;8.050;2022-09-09T02:25:38;14.10;99.90
35258;DHT22;21385;50.878;8.050;2022-09-09T02:28:07;14.10;99.90
35258;DHT22;21385;50.878;8.050;2022-09-09T02:30:35;14.10;99.90
35258;DHT22;21385;50.878;8.050;2022-09-09T02:33:04;14.10;99.90
35258;DHT22;21385;50.878;8.050;2022-09-09T02:35:32;14.10;99.90
35258;DHT22;21385;50.878;8.050;2022-09-09T02:38:04;14.00;99.90
35258;DHT22;21385;50.878;8.050;2022-09-09T02:40:31;14.10;99.90
35258;DHT22;21385;50.878;8.050;2022-09-09T02:42:57;14.10;99.90
35258;DHT22;21385;50.878;8.050;2022-09-09T02:45:38;14.10;99.90
35258;DHT22;21385;50.878;8.050;2022-09-09T02:48:21;14.20;99.90
35258;DHT22;21385;50.878;8.050;2022-09-09T02:51:14;14.20;99.90
35258;DHT22;21385;50.878;8.050;2022-09-09T02:53:52;14.20;99.90
35258;DHT22;21385;50.878;8.050;2022-09-09T02:56:24;14.20;99.90
35258;DHT22;21385;50.878;8.050;2022-09-09T02:58:50;14.30;99.90
35258;DHT22;21385;50.878;8.050;2022-09-09T03:01:17;14.30;99.90
35258;DHT22;21385;50.878;8.050;2022-09-09T03:03:42;14.30;99.90
35258;DHT22;21385;50.878;8.050;2022-09-09T03:06:09;14.40;99.90
35258;DHT22;21385;50.878;8.050;2022-09-09T03:08:37;14.30;99.90
35258;DHT22;21385;50.878;8.050;2022-09-09T03:11:03;14.40;99.90
35258;DHT22;21385;50.878;8.050;2022-09-09T03:13:28;14.30;99.90
35258;DHT22;21385;50.878;8.050;2022-09-09T03:15:54;14.30;99.90
35258;DHT22;21385;50.878;8.050;2022-09-09T03:18:20;14.30;99.90
35258;DHT22;21385;50.878;8.050;2022-09-09T03:20:46;14.30;99.90
35258;DHT22;21385;50.878;8.050;2022-09-09T03:23:14;14.40;99.90
35258;DHT22;21385;50.878;8.050;2022-09-09T03:25:46;14.40;99.90
35258;DHT22;21385;50.878;8.050;2022-09-09T03:28:12;14.50;99.90
35258;DHT22;21385;50.878;8.050;2022-09-09T03:30:37;14.50;99.90
35258;DHT22;21385;50.878;8.050;2022-09-09T03:33:03;14.50;99.90
35258;DHT22;21385;50.878;8.050;2022-09-09T03:35:29;14.40;99.90
35258;DHT22;21385;50.878;8.050;2022-09-09T03:37:55;14.40;99.90
35258;DHT22;21385;50.878;8.050;2022-09-09T03:40:21;14.40;99.90
35258;DHT22;21385;50.878;8.050;2022-09-09T03:42:46;14.40;99.90
35258;DHT22;21385;50.878;8.050;2022-09-09T03:45:13;14.40;99.90
35258;DHT22;21385;50.878;8.050;2022-09-09T03:47:38;14.50;99.90
35258;DHT22;21385;50.878;8.050;2022-09-09T03:50:06;14.50;99.90
35258;DHT22;21385;50.878;8.050;2022-09-09T03:52:38;14.50;99.90
35258;DHT22;21385;50.878;8.050;2022-09-09T03:55:07;14.60;99.90
35258;DHT22;21385;50.878;8.050;2022-09-09T03:57:33;14.60;99.90
35258;DHT22;21385;50.878;8.050;2022-09-09T04:00:05;14.70;99.90
35258;DHT22;21385;50.878;8.050;2022-09-09T04:02:32;14.70;99.90
35258;DHT22;21385;50.878;8.050;2022-09-09T04:04:57;14.70;99.90
35258;DHT22;21385;50.878;8.050;2022-09-09T04:07:23;14.70;99.90
35258;DHT22;21385;50.878;8.050;2022-09-09T04:09:49;14.80;99.90
35258;DHT22;21385;50.878;8.050;2022-09-09T04:12:14;14.90;99.90
35258;DHT22;21385;50.878;8.050;2022-09-09T04:14:40;14.90;99.90
35258;DHT22;21385;50.878;8.050;2022-09-09T04:17:06;15.00;99.90
35258;DHT22;21385;50.878;8.050;2022-09-09T04:19:32;15.00;99.90
35258;DHT22;21385;50.878;8.050;2022-09-09T04:21:58;15.10;99.90
35258;DHT22;21385;50.878;8.050;2022-09-09T04:24:24;15.10;99.90
35258;DHT22;21385;50.878;8.050;2022-09-09T04:26:49;15.20;99.90
35258;DHT22;21385;50.878;8.050;2022-09-09T04:29:15;15.20;99.90
35258;DHT22;21385;50.878;8.050;2022-09-09T04:31:41;15.20;99.90
35258;DHT22;21385;50.878;8.050;2022-09-09T04:34:08;15.20;99.90
35258;DHT22;21385;50.878;8.050;2022-09-09T04:36:34;15.30;99.90
35258;DHT22;21385;50.878;8.050;2022-09-09T04:39:00;15.40;99.90
35258;DHT22;21385;50.878;8.050;2022-09-09T04:41:27;15.50;99.90
35258;DHT22;21385;50.878;8.050;2022-09-09T04:43:52;15.60;99.90
35258;DHT22;21385;50.878;8.050;2022-09-09T04:46:19;15.80;99.90
35258;DHT22;21385;50.878;8.050;2022-09-09T04:48:45;16.00;99.90
35258;DHT22;21385;50.878;8.050;2022-09-09T04:51:13;16.10;99.90
35258;DHT22;21385;50.878;8.050;2022-09-09T04:53:39;16.20;99.90
35258;DHT22;21385;50.878;8.050;2022-09-09T04:56:14;16.30;99.90
35258;DHT22;21385;50.878;8.050;2022-09-09T04:58:40;16.50;99.90
35258;DHT22;21385;50.878;8.050;2022-09-09T05:01:20;16.60;99.90
35258;DHT22;21385;50.878;8.050;2022-09-09T05:03:49;17.00;99.90
35258;DHT22;21385;50.878;8.050;2022-09-09T05:06:18;17.40;99.90
35258;DHT22;21385;50.878;8.050;2022-09-09T05:08:45;17.70;99.90
35258;DHT22;21385;50.878;8.050;2022-09-09T05:11:31;18.00;99.90
35258;DHT22;21385;50.878;8.050;2022-09-09T05:13:57;18.20;99.90
35258;DHT22;21385;50.878;8.050;2022-09-09T05:16:23;18.50;99.90
35258;DHT22;21385;50.878;8.050;2022-09-09T05:18:49;18.80;99.90
35258;DHT22;21385;50.878;8.050;2022-09-09T05:21:17;18.90;99.90
35258;DHT22;21385;50.878;8.050;2022-09-09T05:23:44;19.10;99.90
35258;DHT22;21385;50.878;8.050;2022-09-09T05:26:16;19.30;99.90
35258;DHT22;21385;50.878;8.050;2022-09-09T05:28:41;19.30;99.90
35258;DHT22;21385;50.878;8.050;2022-09-09T05:31:08;19.30;99.90
35258;DHT22;21385;50.878;8.050;2022-09-09T05:33:37;19.20;99.90
35258;DHT22;21385;50.878;8.050;2022-09-09T05:36:05;19.20;99.90
35258;DHT22;21385;50.878;8.050;2022-09-09T05:38:33;19.20;99.90
35258;DHT22;21385;50.878;8.050;2022-09-09T05:40:59;19.10;99.90
35258;DHT22;21385;50.878;8.050;2022-09-09T05:43:26;19.10;99.90
35258;DHT22;21385;50.878;8.050;2022-09-09T05:46:10;19.10;99.90
35258;DHT22;21385;50.878;8.050;2022-09-09T05:48:38;19.10;99.90
35258;DHT22;21385;50.878;8.050;2022-09-09T05:51:05;19.00;99.90
35258;DHT22;21385;50.878;8.050;2022-09-09T05:53:34;19.00;99.90
35258;DHT22;21385;50.878;8.050;2022-09-09T05:56:05;19.00;99.90
35258;DHT22;21385;50.878;8.050;2022-09-09T05:58:34;19.00;99.90
35258;DHT22;21385;50.878;8.050;2022-09-09T06:03:29;19.10;99.90
35258;DHT22;21385;50.878;8.050;2022-09-09T06:05:59;19.10;99.90
35258;DHT22;21385;50.878;8.050;2022-09-09T06:08:25;18.90;99.90
35258;DHT22;21385;50.878;8.050;2022-09-09T06:10:51;18.80;99.90
35258;DHT22;21385;50.878;8.050;2022-09-09T06:13:17;18.80;99.90
35258;DHT22;21385;50.878;8.050;2022-09-09T06:15:52;18.70;99.90
35258;DHT22;21385;50.878;8.050;2022-09-09T06:18:18;18.50;99.90
35258;DHT22;21385;50.878;8.050;2022-09-09T06:23:42;18.00;99.90
35258;DHT22;21385;50.878;8.050;2022-09-09T06:26:12;17.80;99.90
35258;DHT22;21385;50.878;8.050;2022-09-09T06:28:38;17.70;99.90
35258;DHT22;21385;50.878;8.050;2022-09-09T06:31:09;17.60;99.90
35258;DHT22;21385;50.878;8.050;2022-09-09T06:33:36;17.50;99.90
35258;DHT22;21385;50.878;8.050;2022-09-09T06:36:04;17.50;99.90
35258;DHT22;21385;50.878;8.050;2022-09-09T06:38:30;17.50;99.90
35258;DHT22;21385;50.878;8.050;2022-09-09T06:40:58;17.50;99.90
35258;DHT22;21385;50.878;8.050;2022-09-09T06:43:27;17.50;99.90
35258;DHT22;21385;50.878;8.050;2022-09-09T06:48:26;17.60;99.90
35258;DHT22;21385;50.878;8.050;2022-09-09T06:51:22;17.60;99.90
35258;DHT22;21385;50.878;8.050;2022-09-09T06:53:53;17.60;99.90
35258;DHT22;21385;50.878;8.050;2022-09-09T06:56:24;17.70;99.90
35258;DHT22;21385;50.878;8.050;2022-09-09T06:58:51;17.70;99.90
35258;DHT22;21385;50.878;8.050;2022-09-09T07:01:20;17.70;99.90
35258;DHT22;21385;50.878;8.050;2022-09-09T07:03:47;17.70;99.90
35258;DHT22;21385;50.878;8.050;2022-09-09T07:06:15;17.70;99.90
35258;DHT22;21385;50.878;8.050;2022-09-09T07:08:43;17.70;99.90
35258;DHT22;21385;50.878;8.050;2022-09-09T07:11:08;17.60;99.90
35258;DHT22;21385;50.878;8.050;2022-09-09T07:13:35;17.60;99.90
35258;DHT22;21385;50.878;8.050;2022-09-09T07:16:08;17.60;99.90
35258;DHT22;21385;50.878;8.050;2022-09-09T07:18:35;17.50;99.90
35258;DHT22;21385;50.878;8.050;2022-09-09T07:21:01;17.50;99.90
35258;DHT22;21385;50.878;8.050;2022-09-09T07:23:29;17.50;99.90
35258;DHT22;21385;50.878;8.050;2022-09-09T07:25:55;17.40;99.90
35258;DHT22;21385;50.878;8.050;2022-09-09T07:28:22;17.20;99.90
35258;DHT22;21385;50.878;8.050;2022-09-09T07:30:59;17.30;99.90
35258;DHT22;21385;50.878;8.050;2022-09-09T07:33:26;17.30;99.90
35258;DHT22;21385;50.878;8.050;2022-09-09T07:35:52;17.40;99.90
35258;DHT22;21385;50.878;8.050;2022-09-09T07:38:19;17.30;99.90
35258;DHT22;21385;50.878;8.050;2022-09-09T07:40:46;17.30;99.90
35258;DHT22;21385;50.878;8.050;2022-09-09T07:43:11;17.20;99.90
35258;DHT22;21385;50.878;8.050;2022-09-09T07:45:37;17.30;99.90
35258;DHT22;21385;50.878;8.050;2022-09-09T07:48:04;17.30;99.90
35258;DHT22;21385;50.878;8.050;2022-09-09T07:50:30;17.30;99.90
35258;DHT22;21385;50.878;8.050;2022-09-09T07:52:56;17.30;99.90
35258;DHT22;21385;50.878;8.050;2022-09-09T07:55:22;17.40;99.90
35258;DHT22;21385;50.878;8.050;2022-09-09T07:57:51;17.50;99.90
35258;DHT22;21385;50.878;8.050;2022-09-09T08:00:16;17.60;99.90
35258;DHT22;21385;50.878;8.050;2022-09-09T08:02:44;17.80;99.90
35258;DHT22;21385;50.878;8.050;2022-09-09T08:05:09;17.90;99.90
35258;DHT22;21385;50.878;8.050;2022-09-09T08:07:35;17.90;99.90
35258;DHT22;21385;50.878;8.050;2022-09-09T08:10:02;18.00;99.90
35258;DHT22;21385;50.878;8.050;2022-09-09T08:12:27;18.00;99.90
35258;DHT22;21385;50.878;8.050;2022-09-09T08:14:53;17.90;99.90
35258;DHT22;21385;50.878;8.050;2022-09-09T08:17:19;17.90;99.90
35258;DHT22;21385;50.878;8.050;2022-09-09T08:19:45;17.90;99.90
35258;DHT22;21385;50.878;8.050;2022-09-09T08:22:10;17.90;99.90
35258;DHT22;21385;50.878;8.050;2022-09-09T08:24:36;17.80;99.90
35258;DHT22;21385;50.878;8.050;2022-09-09T08:27:02;17.80;99.90
35258;DHT22;21385;50.878;8.050;2022-09-09T08:29:27;17.70;99.90
35258;DHT22;21385;50.878;8.050;2022-09-09T08:31:55;17.90;99.90
35258;DHT22;21385;50.878;8.050;2022-09-09T08:34:23;18.00;99.90
35258;DHT22;21385;50.878;8.050;2022-09-09T08:36:50;18.20;99.90
35258;DHT22;21385;50.878;8.050;2022-09-09T08:39:18;18.30;99.90
35258;DHT22;21385;50.878;8.050;2022-09-09T08:50:30;18.60;99.90
35258;DHT22;21385;50.878;8.050;2022-09-09T08:55:41;18.50;99.90
35258;DHT22;21385;50.878;8.050;2022-09-09T09:03:36;18.70;99.90
35258;DHT22;21385;50.878;8.050;2022-09-09T09:08:42;19.10;99.90
35258;DHT22;21385;50.878;8.050;2022-09-09T09:11:09;19.20;99.90
35258;DHT22;21385;50.878;8.050;2022-09-09T09:14:03;19.30;99.90
35258;DHT22;21385;50.878;8.050;2022-09-09T09:19:13;19.40;99.90
35258;DHT22;21385;50.878;8.050;2022-09-09T09:21:45;19.50;99.90
35258;DHT22;21385;50.878;8.050;2022-09-09T09:24:20;19.40;99.90
35258;DHT22;21385;50.878;8.050;2022-09-09T09:26:49;19.20;99.90
35258;DHT22;21385;50.878;8.050;2022-09-09T09:29:17;19.10;99.90
35258;DHT22;21385;50.878;8.050;2022-09-09T09:31:53;19.20;99.90
35258;DHT22;21385;50.878;8.050;2022-09-09T09:34:22;19.10;99.90
35258;DHT22;21385;50.878;8.050;2022-09-09T09:39:25;19.10;99.90
35258;DHT22;21385;50.878;8.050;2022-09-09T09:41:51;19.10;99.90
35258;DHT22;21385;50.878;8.050;2022-09-09T09:44:27;19.10;99.90
35258;DHT22;21385;50.878;8.050;2022-09-09T09:46:53;19.20;99.90
35258;DHT22;21385;50.878;8.050;2022-09-09T09:49:18;19.30;99.90
35258;DHT22;21385;50.878;8.050;2022-09-09T09:51:44;19.50;99.90
35258;DHT22;21385;50.878;8.050;2022-09-09T09:56:39;19.50;99.90
35258;DHT22;21385;50.878;8.050;2022-09-09T09:59:10;19.60;99.90
35258;DHT22;21385;50.878;8.050;2022-09-09T10:01:44;19.70;99.90
35258;DHT22;21385;50.878;8.050;2022-09-09T10:06:41;19.90;99.90
35258;DHT22;21385;50.878;8.050;2022-09-09T10:09:27;20.00;99.90
35258;DHT22;21385;50.878;8.050;2022-09-09T10:12:19;20.10;99.10
35258;DHT22;21385;50.878;8.050;2022-09-09T10:20:58;20.30;98.90
35258;DHT22;21385;50.878;8.050;2022-09-09T10:26:50;20.60;98.20
35258;DHT22;21385;50.878;8.050;2022-09-09T10:32:06;20.60;97.50
35258;DHT22;21385;50.878;8.050;2022-09-09T10:34:55;20.50;97.50
35258;DHT22;21385;50.878;8.050;2022-09-09T10:40:38;20.70;98.00
35258;DHT22;21385;50.878;8.050;2022-09-09T10:51:40;21.10;95.20
35258;DHT22;21385;50.878;8.050;2022-09-09T10:56:58;21.10;95.60
35258;DHT22;21385;50.878;8.050;2022-09-09T10:59:38;21.10;94.90
35258;DHT22;21385;50.878;8.050;2022-09-09T11:02:17;20.90;95.80
35258;DHT22;21385;50.878;8.050;2022-09-09T11:05:18;20.80;96.10
35258;DHT22;21385;50.878;8.050;2022-09-09T11:12:50;20.90;96.20
35258;DHT22;21385;50.878;8.050;2022-09-09T11:15:29;21.00;95.50
35258;DHT22;21385;50.878;8.050;2022-09-09T11:17:58;21.30;95.50
35258;DHT22;21385;50.878;8.050;2022-09-09T11:20:26;21.40;94.60
35258;DHT22;21385;50.878;8.050;2022-09-09T11:23:01;21.50;94.30
35258;DHT22;21385;50.878;8.050;2022-09-09T11:25:54;21.30;94.30
35258;DHT22;21385;50.878;8.050;2022-09-09T11:28:32;21.30;95.60
35258;DHT22;21385;50.878;8.050;2022-09-09T11:31:19;21.40;95.30
35258;DHT22;21385;50.878;8.050;2022-09-09T11:34:19;21.50;94.30
35258;DHT22;21385;50.878;8.050;2022-09-09T11:42:20;21.90;95.20
35258;DHT22;21385;50.878;8.050;2022-09-09T11:44:46;22.10;94.10
35258;DHT22;21385;50.878;8.050;2022-09-09T11:47:29;22.10;93.50
35258;DHT22;21385;50.878;8.050;2022-09-09T11:52:45;21.70;94.20
35258;DHT22;21385;50.878;8.050;2022-09-09T11:58:00;21.60;94.50
35258;DHT22;21385;50.878;8.050;2022-09-09T12:00:35;21.50;94.70
35258;DHT22;21385;50.878;8.050;2022-09-09T12:03:03;21.50;94.50
35258;DHT22;21385;50.878;8.050;2022-09-09T12:05:41;21.30;95.50
35258;DHT22;21385;50.878;8.050;2022-09-09T12:08:10;21.40;94.90
35258;DHT22;21385;50.878;8.050;2022-09-09T12:10:40;21.70;95.00
35258;DHT22;21385;50.878;8.050;2022-09-09T12:13:22;22.10;93.90
35258;DHT22;21385;50.878;8.050;2022-09-09T12:15:53;22.40;92.60
35258;DHT22;21385;50.878;8.050;2022-09-09T12:18:37;22.70;92.40
35258;DHT22;21385;50.878;8.050;2022-09-09T12:21:27;22.80;91.30
35258;DHT22;21385;50.878;8.050;2022-09-09T12:24:06;23.00;90.50
35258;DHT22;21385;50.878;8.050;2022-09-09T12:29:21;22.50;89.60
35258;DHT22;21385;50.878;8.050;2022-09-09T12:34:42;22.00;90.20
35258;DHT22;21385;50.878;8.050;2022-09-09T12:40:23;22.40;90.20
35258;DHT22;21385;50.878;8.050;2022-09-09T12:42:49;22.50;90.60
35258;DHT22;21385;50.878;8.050;2022-09-09T12:45:18;22.40;90.60
35258;DHT22;21385;50.878;8.050;2022-09-09T12:47:57;22.10;91.20
35258;DHT22;21385;50.878;8.050;2022-09-09T12:50:27;22.00;91.50
35258;DHT22;21385;50.878;8.050;2022-09-09T12:52:59;22.00;91.40
35258;DHT22;21385;50.878;8.050;2022-09-09T12:55:31;22.00;91.00
35258;DHT22;21385;50.878;8.050;2022-09-09T12:58:00;22.00;91.60
35258;DHT22;21385;50.878;8.050;2022-09-09T13:00:29;22.20;91.00
35258;DHT22;21385;50.878;8.050;2022-09-09T13:02:58;22.50;90.30
35258;DHT22;21385;50.878;8.050;2022-09-09T13:05:34;22.60;91.20
35258;DHT22;21385;50.878;8.050;2022-09-09T13:08:05;23.00;90.20
35258;DHT22;21385;50.878;8.050;2022-09-09T13:10:34;23.00;89.30
35258;DHT22;21385;50.878;8.050;2022-09-09T13:13:01;22.70;90.30
35258;DHT22;21385;50.878;8.050;2022-09-09T13:15:31;22.30;90.00
35258;DHT22;21385;50.878;8.050;2022-09-09T13:18:13;22.30;91.20
35258;DHT22;21385;50.878;8.050;2022-09-09T13:20:39;22.60;90.40
35258;DHT22;21385;50.878;8.050;2022-09-09T13:23:05;23.00;89.30
35258;DHT22;21385;50.878;8.050;2022-09-09T13:25:30;23.40;86.20
35258;DHT22;21385;50.878;8.050;2022-09-09T13:28:01;23.70;85.20
35258;DHT22;21385;50.878;8.050;2022-09-09T13:30:36;23.80;85.00
35258;DHT22;21385;50.878;8.050;2022-09-09T13:33:20;23.90;83.70
35258;DHT22;21385;50.878;8.050;2022-09-09T13:38:15;23.90;81.50
35258;DHT22;21385;50.878;8.050;2022-09-09T13:40:56;24.00;81.20
35258;DHT22;21385;50.878;8.050;2022-09-09T13:43:23;24.30;78.40
35258;DHT22;21385;50.878;8.050;2022-09-09T13:46:04;24.50;76.20
35258;DHT22;21385;50.878;8.050;2022-09-09T13:48:31;24.50;76.60
35258;DHT22;21385;50.878;8.050;2022-09-09T13:51:04;24.60;76.00
35258;DHT22;21385;50.878;8.050;2022-09-09T13:53:31;24.70;75.60
35258;DHT22;21385;50.878;8.050;2022-09-09T13:55:57;24.70;76.50
35258;DHT22;21385;50.878;8.050;2022-09-09T13:58:23;24.40;75.70
35258;DHT22;21385;50.878;8.050;2022-09-09T14:00:51;24.20;76.20
35258;DHT22;21385;50.878;8.050;2022-09-09T14:03:17;24.00;78.60
35258;DHT22;21385;50.878;8.050;2022-09-09T14:05:44;24.10;77.90
35258;DHT22;21385;50.878;8.050;2022-09-09T14:08:16;23.90;78.90
35258;DHT22;21385;50.878;8.050;2022-09-09T14:10:43;23.60;79.20
35258;DHT22;21385;50.878;8.050;2022-09-09T14:13:08;23.20;80.50
35258;DHT22;21385;50.878;8.050;2022-09-09T14:15:34;22.80;82.40
35258;DHT22;21385;50.878;8.050;2022-09-09T14:17:59;22.60;84.10
35258;DHT22;21385;50.878;8.050;2022-09-09T14:20:25;22.40;84.60
35258;DHT22;21385;50.878;8.050;2022-09-09T14:22:50;22.10;85.60
35258;DHT22;21385;50.878;8.050;2022-09-09T14:25:16;22.00;88.40
35258;DHT22;21385;50.878;8.050;2022-09-09T14:27:42;21.80;90.10
35258;DHT22;21385;50.878;8.050;2022-09-09T14:30:08;21.70;90.40
35258;DHT22;21385;50.878;8.050;2022-09-09T14:32:35;21.80;90.40
35258;DHT22;21385;50.878;8.050;2022-09-09T14:35:00;21.90;90.80
35258;DHT22;21385;50.878;8.050;2022-09-09T14:37:27;22.00;90.20
35258;DHT22;21385;50.878;8.050;2022-09-09T14:39:52;21.90;88.80
35258;DHT22;21385;50.878;8.050;2022-09-09T14:42:19;21.70;90.10
35258;DHT22;21385;50.878;8.050;2022-09-09T14:44:44;21.60;90.00
35258;DHT22;21385;50.878;8.050;2022-09-09T14:47:10;21.40;90.20
35258;DHT22;21385;50.878;8.050;2022-09-09T14:49:36;21.30;90.80
35258;DHT22;21385;50.878;8.050;2022-09-09T14:52:03;21.30;90.40
35258;DHT22;21385;50.878;8.050;2022-09-09T14:54:29;21.20;91.00
35258;DHT22;21385;50.878;8.050;2022-09-09T14:56:55;21.00;92.10
35258;DHT22;21385;50.878;8.050;2022-09-09T14:59:22;20.80;94.40
35258;DHT22;21385;50.878;8.050;2022-09-09T15:01:47;20.50;98.50
35258;DHT22;21385;50.878;8.050;2022-09-09T15:04:13;20.00;99.90
35258;DHT22;21385;50.878;8.050;2022-09-09T15:06:40;19.50;99.90
35258;DHT22;21385;50.878;8.050;2022-09-09T15:09:08;19.10;99.90
35258;DHT22;21385;50.878;8.050;2022-09-09T15:11:36;18.90;99.90
35258;DHT22;21385;50.878;8.050;2022-09-09T15:14:05;18.80;99.90
35258;DHT22;21385;50.878;8.050;2022-09-09T15:16:31;18.80;99.90
35258;DHT22;21385;50.878;8.050;2022-09-09T15:18:59;18.80;99.90
35258;DHT22;21385;50.878;8.050;2022-09-09T15:21:28;18.70;99.90
35258;DHT22;21385;50.878;8.050;2022-09-09T15:23:55;18.60;99.90
35258;DHT22;21385;50.878;8.050;2022-09-09T15:26:20;18.70;99.90
35258;DHT22;21385;50.878;8.050;2022-09-09T15:28:46;19.00;99.90
35258;DHT22;21385;50.878;8.050;2022-09-09T15:31:21;19.30;99.90
35258;DHT22;21385;50.878;8.050;2022-09-09T15:33:52;19.60;99.90
35258;DHT22;21385;50.878;8.050;2022-09-09T15:36:20;19.80;99.90
35258;DHT22;21385;50.878;8.050;2022-09-09T15:38:47;20.20;99.90
35258;DHT22;21385;50.878;8.050;2022-09-09T15:41:13;20.80;99.90
35258;DHT22;21385;50.878;8.050;2022-09-09T15:43:43;21.20;99.90
35258;DHT22;21385;50.878;8.050;2022-09-09T15:48:46;21.10;99.90
35258;DHT22;21385;50.878;8.050;2022-09-09T15:51:12;20.90;99.90
35258;DHT22;21385;50.878;8.050;2022-09-09T15:53:38;20.60;99.90
35258;DHT22;21385;50.878;8.050;2022-09-09T15:56:07;20.40;99.90
35258;DHT22;21385;50.878;8.050;2022-09-09T15:58:34;20.40;99.90
35258;DHT22;21385;50.878;8.050;2022-09-09T16:01:05;20.50;99.90
35258;DHT22;21385;50.878;8.050;2022-09-09T16:03:35;20.60;99.90
35258;DHT22;21385;50.878;8.050;2022-09-09T16:06:02;20.70;99.90
35258;DHT22;21385;50.878;8.050;2022-09-09T16:08:35;20.80;99.90
35258;DHT22;21385;50.878;8.050;2022-09-09T16:11:09;20.80;99.90
35258;DHT22;21385;50.878;8.050;2022-09-09T16:13:36;20.90;99.90
35258;DHT22;21385;50.878;8.050;2022-09-09T16:16:03;20.80;99.90
35258;DHT22;21385;50.878;8.050;2022-09-09T16:18:36;20.80;99.90
35258;DHT22;21385;50.878;8.050;2022-09-09T16:21:02;20.70;99.90
35258;DHT22;21385;50.878;8.050;2022-09-09T16:23:28;20.60;99.90
35258;DHT22;21385;50.878;8.050;2022-09-09T16:25:54;20.60;99.90
35258;DHT22;21385;50.878;8.050;2022-09-09T16:28:20;20.80;99.90
35258;DHT22;21385;50.878;8.050;2022-09-09T16:30:46;20.90;99.90
35258;DHT22;21385;50.878;8.050;2022-09-09T16:33:12;20.90;99.90
35258;DHT22;21385;50.878;8.050;2022-09-09T16:35:40;20.80;99.90
35258;DHT22;21385;50.878;8.050;2022-09-09T16:38:05;20.80;99.90
35258;DHT22;21385;50.878;8.050;2022-09-09T16:40:34;20.70;99.90
35258;DHT22;21385;50.878;8.050;2022-09-09T16:43:00;20.60;99.90
35258;DHT22;21385;50.878;8.050;2022-09-09T16:45:26;20.30;99.90
35258;DHT22;21385;50.878;8.050;2022-09-09T16:47:53;20.30;99.90
35258;DHT22;21385;50.878;8.050;2022-09-09T16:50:18;20.40;99.90
35258;DHT22;21385;50.878;8.050;2022-09-09T16:52:44;20.30;99.90
35258;DHT22;21385;50.878;8.050;2022-09-09T16:55:09;20.20;99.90
35258;DHT22;21385;50.878;8.050;2022-09-09T16:57:35;20.00;99.90
35258;DHT22;21385;50.878;8.050;2022-09-09T17:00:01;19.80;99.90
35258;DHT22;21385;50.878;8.050;2022-09-09T17:02:30;19.70;99.90
35258;DHT22;21385;50.878;8.050;2022-09-09T17:04:55;19.40;99.90
35258;DHT22;21385;50.878;8.050;2022-09-09T17:07:21;19.30;99.90
35258;DHT22;21385;50.878;8.050;2022-09-09T17:09:48;19.20;99.90
35258;DHT22;21385;50.878;8.050;2022-09-09T17:12:13;19.10;99.90
35258;DHT22;21385;50.878;8.050;2022-09-09T17:14:39;19.10;99.90
35258;DHT22;21385;50.878;8.050;2022-09-09T17:17:04;19.00;99.90
35258;DHT22;21385;50.878;8.050;2022-09-09T17:19:30;19.00;99.90
35258;DHT22;21385;50.878;8.050;2022-09-09T17:21:56;19.20;99.90
35258;DHT22;21385;50.878;8.050;2022-09-09T17:24:26;19.30;99.90
35258;DHT22;21385;50.878;8.050;2022-09-09T17:26:52;19.30;99.90
35258;DHT22;21385;50.878;8.050;2022-09-09T17:29:18;19.40;99.90
35258;DHT22;21385;50.878;8.050;2022-09-09T17:31:44;19.50;99.90
35258;DHT22;21385;50.878;8.050;2022-09-09T17:34:10;19.60;99.90
35258;DHT22;21385;50.878;8.050;2022-09-09T17:36:35;19.60;99.90
35258;DHT22;21385;50.878;8.050;2022-09-09T17:39:03;19.60;99.90
35258;DHT22;21385;50.878;8.050;2022-09-09T17:41:35;19.50;99.90
35258;DHT22;21385;50.878;8.050;2022-09-09T17:44:01;19.00;99.90
35258;DHT22;21385;50.878;8.050;2022-09-09T17:46:34;18.60;99.90
35258;DHT22;21385;50.878;8.050;2022-09-09T17:49:03;18.40;99.90
35258;DHT22;21385;50.878;8.050;2022-09-09T17:51:30;18.20;99.90
35258;DHT22;21385;50.878;8.050;2022-09-09T17:54:05;18.00;99.90
35258;DHT22;21385;50.878;8.050;2022-09-09T17:56:33;17.80;99.90
35258;DHT22;21385;50.878;8.050;2022-09-09T17:59:01;17.60;99.90